Time;durP1;ratioP1;P1;durP2;ratioP2;P2;SDS_P1;SDS_P2;PMS_P1;PMS_P2;Temp;Humidity;BMP_temperature;BMP_pressure;BME280_temperature;BME280_humidity;BME280_pressure;Samples;Min_cycle;Max_cycle;Signal;HPM_P1;HPM_P2
2021/10/29 00:00:43;;;;;;;25.43;16.65;;;;;;;10.12;80.74;101520.98;1717299;83;22179;-68
2021/10/29 00:03:18;;;;;;;26.05;15.70;;;;;;;10.09;80.76;101516.77;1717303;83;21314;-68
2021/10/29 00:05:55;;;;;;;22.17;15.60;;;;;;;10.09;80.79;101519.38;1717398;83;21282;-68
2021/10/29 00:08:29;;;;;;;24.40;15.53;;;;;;;10.10;80.79;101518.42;1716870;83;21272;-68
2021/10/29 00:11:05;;;;;;;29.47;16.73;;;;;;;10.10;80.79;101520.22;1711492;82;21330;-68
2021/10/29 00:13:42;;;;;;;25.72;15.95;;;;;;;10.10;80.78;101524.96;1711778;83;22349;-68
2021/10/29 00:16:18;;;;;;;28.20;17.07;;;;;;;10.10;80.79;101525.45;1722367;82;21250;-68
2021/10/29 00:18:58;;;;;;;28.35;16.70;;;;;;;10.09;80.78;101519.38;1721657;83;21154;-69
2021/10/29 00:21:33;;;;;;;29.40;17.48;;;;;;;10.09;80.77;101519.84;1720483;83;22154;-69
2021/10/29 00:24:07;;;;;;;25.48;15.72;;;;;;;10.08;80.71;101523.39;1772358;81;21292;-69
2021/10/29 00:26:42;;;;;;;26.27;15.83;;;;;;;10.05;80.67;101524.92;1771883;81;21153;-69
2021/10/29 00:29:16;;;;;;;25.17;15.43;;;;;;;10.02;80.73;101519.88;1772890;80;21280;-69
2021/10/29 00:31:50;;;;;;;23.27;15.53;;;;;;;10.01;80.70;101528.66;1771473;81;21306;-69
2021/10/29 00:34:32;;;;;;;26.82;15.35;;;;;;;9.99;80.72;101533.16;1771635;80;22110;-69
2021/10/29 00:37:12;;;;;;;28.35;15.83;;;;;;;9.97;80.76;101532.42;1771885;80;21165;-69
2021/10/29 00:39:47;;;;;;;28.25;17.05;;;;;;;9.94;80.79;101528.70;1772857;80;21240;-69
2021/10/29 00:42:25;;;;;;;27.75;17.62;;;;;;;9.92;80.82;101531.42;1770950;81;21285;-69
2021/10/29 00:45:04;;;;;;;26.60;17.12;;;;;;;9.89;80.86;101535.54;1772768;80;21172;-68
2021/10/29 00:47:41;;;;;;;28.07;16.87;;;;;;;9.90;80.90;101533.30;1771711;81;21335;-68
2021/10/29 00:50:19;;;;;;;28.17;17.15;;;;;;;9.90;81.02;101542.46;1772685;81;21149;-69
2021/10/29 00:52:59;;;;;;;22.77;15.50;;;;;;;9.89;81.08;101543.84;1771304;81;21145;-69
2021/10/29 00:55:35;;;;;;;25.12;15.50;;;;;;;9.91;81.16;101549.84;1770896;80;21209;-69
2021/10/29 00:58:09;;;;;;;27.30;17.00;;;;;;;9.91;81.31;101553.77;1771705;79;21188;-68
2021/10/29 01:00:49;;;;;;;26.95;16.50;;;;;;;9.94;81.41;101554.86;1770608;80;21200;-68
2021/10/29 01:03:27;;;;;;;26.12;16.73;;;;;;;9.96;81.42;101559.52;1771217;81;21311;-68
2021/10/29 01:06:00;;;;;;;26.50;16.15;;;;;;;9.97;81.45;101554.66;1772492;81;21252;-68
2021/10/29 01:08:38;;;;;;;28.23;17.15;;;;;;;9.99;81.53;101558.86;1762388;81;21272;-69
2021/10/29 01:11:15;;;;;;;24.65;16.00;;;;;;;10.01;81.53;101556.97;1772692;80;21162;-68
2021/10/29 01:13:49;;;;;;;29.98;17.85;;;;;;;10.04;81.51;101554.16;1773243;79;21208;-68
2021/10/29 01:16:24;;;;;;;25.62;16.37;;;;;;;10.05;81.52;101561.55;1795845;80;21838;-69
2021/10/29 01:18:58;;;;;;;24.45;17.30;;;;;;;10.06;81.51;101563.20;1799403;80;21315;-68
2021/10/29 01:21:34;;;;;;;26.97;16.57;;;;;;;10.07;81.51;101571.44;1800405;80;21118;-69
2021/10/29 01:24:13;;;;;;;23.87;16.12;;;;;;;10.07;81.54;101565.74;1800888;80;21105;-69
2021/10/29 01:26:54;;;;;;;25.48;16.30;;;;;;;10.08;81.60;101567.41;1800578;79;21691;-69
2021/10/29 01:29:30;;;;;;;25.65;17.05;;;;;;;10.10;81.62;101566.02;1800389;80;22081;-68
2021/10/29 01:32:06;;;;;;;27.45;16.60;;;;;;;10.11;81.63;101575.52;1800029;80;21272;-68
2021/10/29 01:34:45;;;;;;;27.22;17.00;;;;;;;10.11;81.57;101576.40;1800920;80;21172;-67
2021/10/29 01:37:26;;;;;;;26.50;17.17;;;;;;;10.11;81.52;101580.33;1800816;80;21240;-68
2021/10/29 01:40:01;;;;;;;26.80;17.05;;;;;;;10.10;81.47;101579.09;1801053;80;21783;-69
2021/10/29 01:42:37;;;;;;;26.95;16.35;;;;;;;10.09;81.51;101583.95;1799735;80;21288;-69
2021/10/29 01:45:11;;;;;;;24.47;16.62;;;;;;;10.09;81.56;101593.95;1800409;80;21241;-69
2021/10/29 01:47:50;;;;;;;24.18;16.05;;;;;;;10.08;81.60;101596.65;1799131;79;21129;-70
2021/10/29 01:50:25;;;;;;;22.77;15.53;;;;;;;10.06;81.75;101604.61;1799257;80;21244;-69
2021/10/29 01:53:00;;;;;;;25.60;16.48;;;;;;;10.07;81.90;101607.61;1799848;80;21283;-69
2021/10/29 01:55:37;;;;;;;25.52;17.05;;;;;;;10.09;82.02;101607.03;1800634;80;21168;-70
2021/10/29 01:58:10;;;;;;;26.68;17.45;;;;;;;10.12;82.05;101616.50;1800519;80;21180;-69
2021/10/29 02:00:45;;;;;;;28.92;16.75;;;;;;;10.13;82.05;101623.39;1799264;79;21220;-70
2021/10/29 02:03:20;;;;;;;26.23;16.30;;;;;;;10.12;82.06;101621.27;1799647;80;21842;-69
2021/10/29 02:05:58;;;;;;;25.55;15.88;;;;;;;10.12;82.02;101627.81;1800656;79;21811;-69
2021/10/29 02:08:35;;;;;;;23.38;16.10;;;;;;;10.11;82.03;101624.81;1800440;80;21205;-68
2021/10/29 02:11:14;;;;;;;22.98;15.45;;;;;;;10.09;82.03;101631.89;1800539;80;21117;-67
2021/10/29 02:13:48;;;;;;;28.12;16.15;;;;;;;10.08;82.10;101633.28;1799333;80;21272;-68
2021/10/29 02:16:21;;;;;;;25.55;16.27;;;;;;;10.07;82.13;101636.85;1792775;80;21153;-69
2021/10/29 02:19:02;;;;;;;24.72;15.55;;;;;;;10.07;82.23;101643.39;1789642;80;21264;-69
2021/10/29 02:21:41;;;;;;;21.87;14.73;;;;;;;10.08;82.30;101645.05;1789930;80;21243;-68
2021/10/29 02:24:17;;;;;;;23.45;14.83;;;;;;;10.10;82.31;101653.67;1789320;80;21267;-69
2021/10/29 02:26:53;;;;;;;26.25;15.08;;;;;;;10.09;82.31;101650.20;1788640;79;21186;-68
2021/10/29 02:29:28;;;;;;;22.52;15.40;;;;;;;10.12;82.31;101650.05;1789128;80;21244;-69
2021/10/29 02:32:08;;;;;;;23.27;14.70;;;;;;;10.13;82.22;101656.09;1789821;80;21253;-69
2021/10/29 02:34:48;;;;;;;22.32;14.60;;;;;;;10.12;82.20;101663.14;1789170;80;21351;-69
2021/10/29 02:37:22;;;;;;;21.25;14.30;;;;;;;10.12;82.15;101664.44;1790357;80;21134;-69
2021/10/29 02:39:57;;;;;;;20.55;14.38;;;;;;;10.13;82.20;101663.95;1788402;80;21197;-69
2021/10/29 02:42:33;;;;;;;24.50;14.20;;;;;;;10.14;82.12;101666.48;1790281;80;21248;-69
2021/10/29 02:45:11;;;;;;;23.95;14.45;;;;;;;10.12;82.01;101668.38;1788609;80;21653;-69
2021/10/29 02:47:53;;;;;;;20.97;13.18;;;;;;;10.11;82.07;101677.14;1789846;80;21256;-70
2021/10/29 02:50:25;;;;;;;24.72;13.75;;;;;;;10.09;82.08;101676.38;1788723;80;21614;-69
2021/10/29 02:53:07;;;;;;;22.65;13.38;;;;;;;10.09;82.09;101682.07;1788258;80;21165;-70
2021/10/29 02:55:44;;;;;;;19.87;13.45;;;;;;;10.08;82.09;101683.84;1789040;80;21685;-69
2021/10/29 02:58:16;;;;;;;19.42;12.63;;;;;;;10.10;82.10;101683.27;1790313;80;21281;-69
2021/10/29 03:00:49;;;;;;;22.37;13.30;;;;;;;10.09;82.03;101682.91;1788611;80;21269;-70
2021/10/29 03:03:24;;;;;;;20.67;13.00;;;;;;;10.08;81.90;101690.38;1789894;80;21353;-70
2021/10/29 03:05:57;;;;;;;20.20;13.05;;;;;;;10.02;81.88;101692.09;1788480;80;21309;-69
2021/10/29 03:08:34;;;;;;;21.15;12.23;;;;;;;10.01;81.93;101688.25;1790359;80;21329;-69
2021/10/29 03:11:11;;;;;;;21.00;12.95;;;;;;;9.98;81.92;101699.75;1789951;80;21248;-69
2021/10/29 03:13:49;;;;;;;22.45;12.33;;;;;;;9.95;81.85;101694.73;1779037;79;21146;-69
2021/10/29 03:16:25;;;;;;;18.17;11.83;;;;;;;9.92;81.83;101707.16;1769820;81;21332;-69
2021/10/29 03:19:06;;;;;;;16.17;11.22;;;;;;;9.89;81.86;101711.27;1780472;80;21323;-69
2021/10/29 03:21:42;;;;;;;16.05;11.70;;;;;;;9.86;81.85;101708.37;1786741;80;21291;-69
2021/10/29 03:24:26;;;;;;;15.55;10.65;;;;;;;9.82;81.82;101716.05;1787124;80;21205;-69
2021/10/29 03:27:00;;;;;;;20.48;12.03;;;;;;;9.80;81.92;101716.61;1787359;80;21244;-68
2021/10/29 03:29:34;;;;;;;16.52;10.65;;;;;;;9.77;81.85;101709.41;1766145;80;22031;-68
2021/10/29 03:32:08;;;;;;;16.17;11.38;;;;;;;9.72;81.78;101712.81;1763374;81;21292;-68
2021/10/29 03:34:50;;;;;;;19.75;11.45;;;;;;;9.65;81.78;101713.63;1766076;80;21351;-67
2021/10/29 03:43:24;;;;;;;17.17;10.75;;;;;;;9.50;81.99;101725.05;1746692;82;21375;-67
2021/10/29 03:45:59;;;;;;;17.85;10.98;;;;;;;9.44;82.09;101724.95;1733130;81;21148;-67
2021/10/29 03:48:41;;;;;;;17.48;11.03;;;;;;;9.38;82.23;101733.64;1730277;83;21490;-67
2021/10/29 03:51:13;;;;;;;13.43;10.05;;;;;;;9.30;82.23;101733.24;1729553;83;21239;-67
2021/10/29 03:56:27;;;;;;;17.25;10.75;;;;;;;9.15;82.34;101734.15;1730399;83;21276;-67
2021/10/29 03:59:05;;;;;;;16.90;11.03;;;;;;;9.08;82.46;101740.20;1730237;83;21147;-67
2021/10/29 04:01:43;;;;;;;17.15;10.30;;;;;;;9.04;82.63;101753.09;1731015;83;21698;-66
2021/10/29 04:04:17;;;;;;;17.62;10.63;;;;;;;9.02;82.74;101763.25;1731475;83;21247;-66
2021/10/29 04:06:57;;;;;;;16.23;10.18;;;;;;;9.01;82.82;101765.47;1730356;83;21754;-67
2021/10/29 04:09:33;;;;;;;17.42;11.18;;;;;;;9.03;82.88;101764.45;1731313;83;21310;-67
2021/10/29 04:12:09;;;;;;;22.15;12.43;;;;;;;9.02;82.80;101771.93;1728349;83;21191;-67
2021/10/29 04:14:49;;;;;;;17.02;10.78;;;;;;;9.01;82.89;101774.16;1729350;83;21314;-66
2021/10/29 04:21:20;;;;;;;22.17;12.75;;;;;;;8.99;82.87;101785.16;1712791;82;21952;-66
2021/10/29 04:23:53;;;;;;;20.77;11.73;;;;;;;8.97;82.96;101792.25;1762230;80;21282;-67
2021/10/29 04:26:28;;;;;;;17.10;10.48;;;;;;;8.99;82.94;101795.61;1757988;81;21317;-67
2021/10/29 04:29:14;;;;;;;16.40;11.08;;;;;;;9.01;82.87;101797.66;1737550;81;21287;-66
2021/10/29 04:31:50;;;;;;;19.95;10.53;;;;;;;9.03;82.82;101797.59;1776412;79;21341;-67
2021/10/29 04:34:24;;;;;;;15.88;10.35;;;;;;;9.05;82.74;101801.77;1757055;81;21485;-67
2021/10/29 04:37:02;;;;;;;15.28;10.18;;;;;;;9.08;82.64;101806.83;1758278;80;21177;-67
2021/10/29 04:39:50;;;;;;;15.83;11.25;;;;;;;9.08;82.40;101809.90;1724553;83;21251;-67
2021/10/29 04:42:20;;;;;;;16.35;10.88;;;;;;;9.05;82.27;101816.63;1695983;82;21362;-67
2021/10/29 04:44:54;;;;;;;15.78;10.40;;;;;;;9.04;82.14;101814.48;1719489;82;21185;-65
2021/10/29 04:47:30;;;;;;;18.90;11.37;;;;;;;9.03;82.00;101815.39;1787397;80;21173;-66
2021/10/29 04:50:07;;;;;;;16.00;10.65;;;;;;;9.01;81.88;101819.02;1783481;80;21287;-66
2021/10/29 04:52:42;;;;;;;17.77;9.80;;;;;;;8.95;81.69;101827.22;1786920;80;21327;-66
2021/10/29 04:55:15;;;;;;;20.80;11.08;;;;;;;8.92;81.81;101828.70;1788242;80;21306;-67
2021/10/29 05:01:45;;;;;;;15.15;10.23;;;;;;;8.94;81.81;101838.13;1735353;82;20463;-65
2021/10/29 05:08:29;;;;;;;19.20;11.20;;;;;;;8.98;81.52;101840.93;1788176;80;21445;-67
2021/10/29 05:15:20;;;;;;;17.52;10.38;;;;;;;8.99;81.28;101853.53;1787644;80;21475;-64
2021/10/29 05:22:03;;;;;;;15.00;9.18;;;;;;;9.03;80.92;101872.05;1790004;80;21184;-63
2021/10/29 05:24:38;;;;;;;14.13;8.53;;;;;;;9.09;80.83;101871.69;1783733;79;21189;-65
2021/10/29 05:27:12;;;;;;;;;;;;;;;9.14;80.69;101874.42;1787514;80;21197;-68
2021/10/29 05:29:45;;;;;;;14.35;9.40;;;;;;;9.21;80.52;101881.44;1747896;82;20243;-67
2021/10/29 05:32:18;;;;;;;19.07;10.98;;;;;;;9.23;80.39;101880.42;1736831;82;21326;-69
2021/10/29 05:34:51;;;;;;;16.00;10.18;;;;;;;9.27;80.09;101887.14;1737164;82;21558;-71
2021/10/29 05:37:33;;;;;;;21.82;13.75;;;;;;;9.34;79.89;101893.70;1736455;82;21216;-66
2021/10/29 05:40:13;;;;;;;33.95;23.25;;;;;;;9.42;79.57;101891.50;1748108;82;21990;-70
2021/10/29 05:46:56;;;;;;;17.77;11.57;;;;;;;9.56;78.91;101894.61;1735816;82;21240;-68
2021/10/29 05:49:29;;;;;;;124.78;71.25;;;;;;;9.82;78.51;101903.52;1747830;82;21233;-69
2021/10/29 05:52:15;;;;;;;30.88;18.73;;;;;;;10.02;77.95;101896.18;1737461;82;21851;-67
2021/10/29 06:01:34;;;;;;;13.83;9.08;;;;;;;10.72;75.85;101901.02;1737350;82;21163;-61
2021/10/29 06:04:09;;;;;;;13.00;8.38;;;;;;;11.18;74.70;101906.74;1735636;82;21576;-65
2021/10/29 06:10:53;;;;;;;12.35;7.95;;;;;;;11.43;72.90;101912.08;1737166;82;21160;-66
2021/10/29 06:13:27;;;;;;;14.10;8.18;;;;;;;11.33;71.93;101910.53;1735378;82;21467;-66
2021/10/29 06:16:00;;;;;;;14.53;9.10;;;;;;;11.28;71.71;101909.14;1737781;82;21628;-65
2021/10/29 06:18:38;;;;;;;12.33;8.03;;;;;;;11.25;71.49;101914.11;1736176;82;21221;-64
2021/10/29 06:21:12;;;;;;;19.67;12.63;;;;;;;11.21;71.21;101908.70;1737125;82;21428;-62
2021/10/29 06:24:00;;;;;;;27.22;14.53;;;;;;;11.24;71.17;101910.30;1734648;82;21265;-69
2021/10/29 06:26:45;;;;;;;30.32;19.37;;;;;;;11.29;71.13;101918.70;1751497;81;21323;-63
2021/10/29 06:33:29;;;;;;;15.65;9.13;;;;;;;11.30;71.00;101930.39;1723390;82;21672;-67
2021/10/29 06:36:06;;;;;;;11.65;8.73;;;;;;;11.24;71.11;101943.06;1723613;83;21388;-65
2021/10/29 06:38:41;;;;;;;30.82;19.12;;;;;;;11.18;71.26;101944.75;1723449;83;21484;-68
2021/10/29 06:41:18;;;;;;;33.35;22.75;;;;;;;11.16;71.53;101950.56;1753148;81;21937;-66
2021/10/29 06:46:42;;;;;;;9.60;6.90;;;;;;;11.15;72.01;101956.77;1793093;80;21304;-66
2021/10/29 06:49:16;;;;;;;9.50;7.00;;;;;;;11.17;72.17;101966.22;1792574;80;21303;-69
2021/10/29 07:40:24;;;;;;;10.98;7.80;;;;;;;11.92;69.90;101984.44;1783795;80;21279;-67
2021/10/29 07:43:00;;;;;;;10.10;7.90;;;;;;;11.91;69.91;101991.50;1785180;80;21283;-67
2021/10/29 07:45:40;;;;;;;11.60;8.08;;;;;;;11.83;70.03;101993.78;1784484;80;21296;-68
2021/10/29 07:48:15;;;;;;;11.70;7.78;;;;;;;11.81;70.33;101996.13;1784185;80;21272;-62
2021/10/29 07:54:58;;;;;;;19.32;10.15;;;;;;;11.71;69.72;102007.70;1784781;80;21287;-66
2021/10/29 07:57:31;;;;;;;36.70;14.60;;;;;;;11.60;70.31;102018.50;1784513;80;21268;-61
2021/10/29 08:00:07;;;;;;;60.55;23.87;;;;;;;11.56;70.32;102019.66;1784584;80;21368;-61
2021/10/29 08:06:54;;;;;;;52.17;21.42;;;;;;;11.43;70.59;102024.38;1785257;80;21313;-65
2021/10/29 08:09:27;;;;;;;56.35;19.20;;;;;;;11.42;70.98;102022.68;1784930;80;21225;-67
2021/10/29 08:12:05;;;;;;;37.25;13.95;;;;;;;11.44;71.01;102033.06;1746262;82;21178;-65
2021/10/29 08:14:46;;;;;;;55.75;19.50;;;;;;;11.45;70.97;102033.45;1736360;82;22124;-65
2021/10/29 08:17:21;;;;;;;30.55;13.05;;;;;;;11.45;70.95;102044.78;1737041;82;21597;-69
2021/10/29 08:19:55;;;;;;;37.08;15.98;;;;;;;11.48;70.80;102048.53;1737332;82;21355;-72
2021/10/29 08:22:35;;;;;;;20.97;11.78;;;;;;;11.49;70.49;102050.66;1736848;82;21323;-63
2021/10/29 08:25:11;;;;;;;16.27;11.45;;;;;;;11.53;70.48;102056.10;1737471;82;21346;-66
2021/10/29 08:27:45;;;;;;;8.15;6.67;;;;;;;11.59;70.41;102053.06;1725386;82;21269;-71
2021/10/29 08:34:31;;;;;;;4.65;3.98;;;;;;;11.65;69.52;102048.75;1725955;83;21899;-69
2021/10/29 08:37:09;;;;;;;11.63;4.17;;;;;;;11.69;68.52;102055.97;1725964;83;21284;-62
2021/10/29 08:39:45;;;;;;;10.03;4.75;;;;;;;11.75;68.24;102059.03;1725978;83;21296;-60
2021/10/29 08:42:18;;;;;;;8.48;6.80;;;;;;;11.85;68.14;102059.27;1726129;83;21212;-68
2021/10/29 08:44:53;;;;;;;11.65;7.55;;;;;;;11.93;67.98;102063.09;1725899;83;21363;-66
2021/10/29 08:47:29;;;;;;;9.53;6.70;;;;;;;12.05;67.66;102058.34;1706091;83;21204;-68
2021/10/29 08:50:03;;;;;;;6.22;5.08;;;;;;;12.22;67.41;102056.38;1725784;83;21213;-68
2021/10/29 08:52:37;;;;;;;35.78;19.42;;;;;;;12.37;67.01;102058.80;1726763;83;21312;-67
2021/10/29 08:59:31;;;;;;;21.35;10.23;;;;;;;12.63;65.82;102067.05;1755094;81;21173;-72
2021/10/29 09:05:23;;;;;;;5.25;3.62;;;;;;;13.13;64.32;102056.16;1728324;82;22153;-73
2021/10/29 09:07:42;;;;;;;6.62;3.60;;;;;;;13.34;63.59;102054.16;1720293;83;21411;-69
2021/10/29 09:10:36;;;;;;;4.53;3.40;;;;;;;13.56;62.72;102057.39;1725952;83;21407;-74
2021/10/29 09:31:39;;;;;;;4.85;3.45;;;;;;;14.88;58.22;102058.71;1724833;83;21358;-72
2021/10/29 09:34:15;;;;;;;4.30;3.47;;;;;;;15.02;57.48;102065.56;1725332;83;21232;-71
2021/10/29 09:36:53;;;;;;;4.58;3.33;;;;;;;15.10;56.90;102067.09;1724610;83;21332;-70
2021/10/29 09:39:31;;;;;;;3.87;2.47;;;;;;;15.16;56.65;102064.84;1724068;83;21414;-67
2021/10/29 09:42:15;;;;;;;3.83;3.12;;;;;;;15.22;56.13;102060.37;1725405;83;21519;-65
2021/10/29 09:44:57;;;;;;;2.87;2.37;;;;;;;15.21;56.10;102060.00;1726179;83;21197;-65
2021/10/29 09:47:28;;;;;;;9.78;4.97;;;;;;;15.17;55.60;102065.17;1726128;83;21206;-65
2021/10/29 09:50:07;;;;;;;18.60;4.60;;;;;;;15.10;54.98;102060.50;1725020;83;21315;-70
2021/10/29 09:55:23;;;;;;;12.18;7.75;;;;;;;14.96;54.65;102064.71;1683544;83;21213;-68
2021/10/29 09:57:52;;;;;;;10.98;7.20;;;;;;;14.82;54.61;102065.80;1725994;83;21367;-67
2021/10/29 10:00:30;;;;;;;3.87;3.10;;;;;;;14.77;54.88;102060.04;1724254;83;21198;-69
2021/10/29 10:03:02;;;;;;;4.10;3.35;;;;;;;14.84;55.12;102062.56;1731800;82;21493;-71
2021/10/29 10:05:38;;;;;;;7.33;3.85;;;;;;;14.96;55.27;102064.23;1729008;82;21644;-70
2021/10/29 10:08:11;;;;;;;5.85;2.70;;;;;;;15.06;54.91;102061.72;1725950;83;21332;-70
2021/10/29 10:10:50;;;;;;;28.92;15.00;;;;;;;15.11;54.45;102061.72;1726113;83;21177;-71
2021/10/29 10:13:21;;;;;;;33.02;19.30;;;;;;;15.02;54.01;102062.92;1756961;81;21296;-68
2021/10/29 10:16:02;;;;;;;16.60;11.15;;;;;;;14.94;53.85;102070.59;1726253;82;21205;-67
2021/10/29 10:18:37;;;;;;;5.22;3.92;;;;;;;14.89;54.03;102070.11;1755332;81;21323;-64
2021/10/29 10:21:20;;;;;;;9.00;5.92;;;;;;;14.87;54.22;102075.98;1725911;82;21334;-65
2021/10/29 10:23:54;;;;;;;11.00;7.03;;;;;;;14.92;54.21;102076.47;1725898;83;21450;-62
2021/10/29 10:26:49;;;;;;;8.30;5.20;;;;;;;15.00;53.91;102076.21;1723025;83;22155;-68
2021/10/29 10:29:32;;;;;;;3.52;2.77;;;;;;;15.04;53.87;102079.47;1683443;83;21315;-61
2021/10/29 10:51:53;;;;;;;8.15;4.50;;;;;;;14.75;52.80;102089.17;1767374;81;22078;-63
2021/10/29 10:54:43;;;;;;;3.52;2.37;;;;;;;14.66;52.41;102086.41;1767845;80;21312;-63
2021/10/29 10:57:24;;;;;;;2.70;2.10;;;;;;;14.49;51.98;102081.58;1766937;80;22047;-65
2021/10/29 11:04:36;;;;;;;2.80;2.40;;;;;;;14.26;51.96;102089.86;1767701;81;21454;-64
2021/10/29 11:11:24;;;;;;;1.98;1.57;;;;;;;14.37;52.70;102080.72;1766787;81;21117;-65
2021/10/29 11:14:00;;;;;;;3.15;1.80;;;;;;;14.62;52.79;102087.58;1766321;81;21189;-62
2021/10/29 11:16:42;;;;;;;3.40;1.80;;;;;;;14.75;52.42;102087.01;1767521;81;22071;-66
2021/10/29 11:19:26;;;;;;;1.75;1.50;;;;;;;14.81;51.76;102091.79;1767946;80;21311;-65
2021/10/29 11:21:57;;;;;;;6.05;2.17;;;;;;;14.84;51.44;102094.20;1759070;81;21291;-68
2021/10/29 11:24:43;;;;;;;5.08;2.05;;;;;;;14.81;51.12;102095.27;1767596;81;21614;-69
2021/10/29 11:27:18;;;;;;;2.67;1.57;;;;;;;14.76;50.86;102089.52;1767473;81;21382;-68
2021/10/29 11:29:56;;;;;;;1.50;1.25;;;;;;;14.75;50.72;102092.28;1767316;81;21609;-71
2021/10/29 11:32:29;;;;;;;2.17;1.35;;;;;;;14.70;50.37;102095.27;1775354;80;21362;-71
2021/10/29 11:35:03;;;;;;;4.08;2.25;;;;;;;14.64;50.00;102098.87;1786133;80;22239;-72
2021/10/29 11:37:37;;;;;;;7.45;3.75;;;;;;;14.53;50.02;102095.72;1790484;80;21370;-69
2021/10/29 11:40:12;;;;;;;19.55;7.62;;;;;;;14.43;50.06;102101.32;1789485;80;21311;-65
2021/10/29 11:42:55;;;;;;;11.03;4.80;;;;;;;14.36;50.20;102104.06;1790343;80;21302;-68
2021/10/29 11:45:36;;;;;;;5.72;2.27;;;;;;;14.32;50.58;102107.05;1791970;80;21249;-70
2021/10/29 11:52:22;;;;;;;4.30;2.02;;;;;;;14.44;51.30;102104.33;1790621;80;21157;-71
2021/10/29 11:54:55;;;;;;;2.87;1.70;;;;;;;14.59;51.00;102107.60;1789228;80;21566;-70
2021/10/29 11:57:54;;;;;;;1.82;1.50;;;;;;;14.63;50.86;102112.52;1788058;80;22161;-69
2021/10/29 12:00:21;;;;;;;3.17;1.60;;;;;;;14.67;50.61;102107.84;1784769;79;21519;-70
2021/10/29 12:05:56;;;;;;;4.77;1.73;;;;;;;14.61;50.06;102110.48;1789378;79;21188;-70
2021/10/29 12:08:30;;;;;;;5.15;2.35;;;;;;;14.52;50.02;102114.30;1789339;80;21311;-70
2021/10/29 12:11:08;;;;;;;4.37;1.82;;;;;;;14.43;49.98;102118.92;1790339;80;21442;-69
2021/10/29 12:13:42;;;;;;;5.22;2.17;;;;;;;14.34;49.65;102120.47;1790355;80;21310;-68
2021/10/29 12:16:20;;;;;;;4.08;1.70;;;;;;;14.28;49.64;102114.80;1790970;80;22116;-69
2021/10/29 12:19:03;;;;;;;4.42;1.70;;;;;;;14.24;49.38;102123.86;1790230;80;22142;-69
2021/10/29 12:21:41;;;;;;;2.35;1.37;;;;;;;14.19;49.36;102122.88;1790023;80;21306;-68
2021/10/29 12:24:16;;;;;;;2.10;1.20;;;;;;;14.13;49.20;102125.98;1790109;80;21188;-70
2021/10/29 12:26:59;;;;;;;2.62;1.55;;;;;;;14.07;49.33;102123.33;1790774;80;21236;-70
2021/10/29 12:29:36;;;;;;;1.85;1.22;;;;;;;14.00;49.49;102126.05;1790102;79;21189;-70
2021/10/29 12:32:36;;;;;;;3.15;1.50;;;;;;;13.90;49.61;102129.48;1789894;80;21295;-72
2021/10/29 12:38:22;;;;;;;2.75;1.20;;;;;;;13.63;49.74;102133.63;1790740;80;22081;-69
2021/10/29 13:03:29;;;;;;;6.55;2.67;;;;;;;13.08;52.47;102155.56;1789273;80;21342;-70
2021/10/29 13:06:08;;;;;;;14.80;4.03;;;;;;;13.04;52.60;102156.20;1790743;80;21181;-67
2021/10/29 13:08:41;;;;;;;3.77;2.27;;;;;;;13.04;52.82;102159.33;1790658;80;22056;-68
2021/10/29 13:11:17;;;;;;;2.87;2.00;;;;;;;13.03;52.75;102156.31;1790824;80;21299;-69
2021/10/29 13:14:17;;;;;;;1.85;1.50;;;;;;;12.98;52.83;102155.32;1789116;80;21174;-68
2021/10/29 13:16:35;;;;;;;4.70;2.20;;;;;;;12.93;52.77;102151.31;1784737;79;21280;-69
2021/10/29 13:36:23;;;;;;;18.82;4.85;;;;;;;12.50;54.26;102172.63;1792898;80;21203;-68
2021/10/29 13:55:54;;;;;;;14.03;5.70;;;;;;;11.98;55.92;102198.81;1785555;80;21280;-69
2021/10/29 14:04:04;;;;;;;9.00;2.58;;;;;;;11.78;56.51;102212.34;1792518;80;21403;-68
2021/10/29 14:29:40;;;;;;;3.02;1.87;;;;;;;11.37;57.39;102214.02;1785821;79;21229;-69
2021/10/29 14:32:22;;;;;;;9.00;3.42;;;;;;;11.32;57.24;102215.62;1791280;80;21302;-69
2021/10/29 14:34:56;;;;;;;11.50;4.40;;;;;;;11.30;57.36;102225.83;1792217;79;21322;-70
2021/10/29 14:37:39;;;;;;;9.23;4.33;;;;;;;11.27;57.33;102218.98;1796009;80;21430;-68
2021/10/29 14:40:14;;;;;;;16.73;8.48;;;;;;;11.24;57.48;102215.27;1786919;80;21303;-67
2021/10/29 14:42:47;;;;;;;13.80;7.70;;;;;;;11.21;57.45;102217.20;1787123;80;21619;-70
2021/10/29 14:45:26;;;;;;;12.10;5.97;;;;;;;11.17;57.47;102224.44;1785205;80;21291;-68
2021/10/29 15:18:40;;;;;;;24.55;12.88;;;;;;;10.93;58.80;102261.72;1753070;81;21359;-68
2021/10/29 15:32:44;;;;;;;10.58;4.75;;;;;;;10.78;58.96;102284.41;1753512;81;21192;-65
2021/10/29 15:46:20;;;;;;;32.30;12.07;;;;;;;10.63;58.48;102285.28;1761108;81;21717;-67
2021/10/29 15:49:04;;;;;;;14.15;5.85;;;;;;;10.58;58.52;102288.16;1761374;81;21347;-66
2021/10/29 15:51:38;;;;;;;14.45;4.80;;;;;;;10.56;58.63;102288.72;1760150;81;21169;-66
2021/10/29 15:54:13;;;;;;;41.20;13.50;;;;;;;10.53;58.75;102288.06;1759936;81;21811;-66
2021/10/29 15:56:54;;;;;;;;;;;;;;;10.53;58.92;102295.92;1758220;81;21695;-67
2021/10/29 15:59:33;;;;;;;21.70;7.20;;;;;;;10.50;59.08;102297.39;1755429;81;20231;-67
2021/10/29 16:02:30;;;;;;;16.82;7.17;;;;;;;10.46;59.17;102303.25;1755365;81;21990;-66
2021/10/29 16:19:19;;;;;;;9.00;4.35;;;;;;;10.33;58.45;102305.34;1767284;81;21255;-67
2021/10/29 16:22:03;;;;;;;8.15;3.10;;;;;;;10.32;58.48;102318.07;1770539;81;21259;-66
2021/10/29 16:24:43;;;;;;;6.50;3.50;;;;;;;10.30;58.50;102320.75;1770302;81;21722;-66
2021/10/29 16:27:15;;;;;;;4.35;2.75;;;;;;;10.28;58.58;102320.00;1770828;81;21240;-66
2021/10/29 16:29:51;;;;;;;9.05;3.52;;;;;;;10.25;58.65;102322.77;1770641;81;21235;-66
2021/10/29 16:32:39;;;;;;;5.78;2.85;;;;;;;10.20;58.75;102323.48;1770394;81;21129;-65
2021/10/29 16:35:08;;;;;;;6.50;2.85;;;;;;;10.15;58.86;102328.97;1767496;81;21141;-67
2021/10/29 16:37:49;;;;;;;5.30;2.92;;;;;;;10.10;58.98;102327.03;1767800;80;21243;-67
2021/10/29 16:40:26;;;;;;;11.97;4.67;;;;;;;10.05;59.16;102329.54;1773085;81;21255;-67
2021/10/29 16:43:00;;;;;;;11.57;5.33;;;;;;;9.99;59.35;102330.70;1772953;81;21752;-67
2021/10/29 16:45:57;;;;;;;29.95;13.95;;;;;;;9.91;59.45;102337.28;1772276;81;21576;-67
2021/10/29 16:48:17;;;;;;;56.05;26.20;;;;;;;9.81;59.65;102327.77;1769854;81;21156;-69
2021/10/29 16:50:54;;;;;;;26.55;12.65;;;;;;;9.72;59.95;102335.25;1772939;81;21136;-67
2021/10/29 16:53:29;;;;;;;16.80;8.33;;;;;;;9.63;60.19;102340.93;1772618;81;21326;-67
2021/10/29 16:56:04;;;;;;;12.68;6.03;;;;;;;9.52;60.44;102343.27;1772316;81;21255;-67
2021/10/29 16:58:42;;;;;;;14.85;7.60;;;;;;;9.39;60.69;102343.89;1772851;80;21168;-67
2021/10/29 17:01:20;;;;;;;13.20;6.53;;;;;;;9.29;60.98;102347.89;1773064;81;21240;-67
2021/10/29 17:03:54;;;;;;;11.15;5.67;;;;;;;9.18;61.29;102349.34;1772788;81;21814;-67
2021/10/29 17:06:28;;;;;;;30.00;14.35;;;;;;;9.07;61.53;102341.20;1771972;80;21357;-67
2021/10/29 17:09:09;;;;;;;14.80;7.62;;;;;;;8.97;61.88;102346.49;1743225;81;21320;-67
2021/10/29 17:11:40;;;;;;;62.05;30.60;;;;;;;8.83;62.18;102337.18;1773580;80;21163;-67
2021/10/29 17:14:19;;;;;;;19.85;10.72;;;;;;;8.73;62.53;102343.30;1771839;80;21187;-67
2021/10/29 17:16:53;;;;;;;20.12;12.43;;;;;;;8.63;62.84;102340.74;1771847;81;21775;-66
2021/10/29 17:19:33;;;;;;;10.63;6.78;;;;;;;8.54;63.04;102342.48;1772247;81;21251;-67
2021/10/29 17:22:09;;;;;;;9.55;5.03;;;;;;;8.45;63.27;102347.70;1773362;80;21775;-66
2021/10/29 17:24:44;;;;;;;11.25;6.20;;;;;;;8.36;63.50;102352.02;1772866;80;21153;-67
2021/10/29 17:27:20;;;;;;;28.83;16.10;;;;;;;8.26;63.75;102358.59;1773453;80;21140;-67
2021/10/29 17:29:55;;;;;;;83.82;34.33;;;;;;;8.17;64.04;102358.14;1772100;81;21323;-69
2021/10/29 17:32:33;;;;;;;51.37;22.85;;;;;;;8.07;64.22;102357.70;1772568;81;21380;-66